Time;durP1;ratioP1;P1;durP2;ratioP2;P2;SDS_P1;SDS_P2;PMS_P1;PMS_P2;Temp;Humidity;BMP_temperature;BMP_pressure;BME280_temperature;BME280_humidity;BME280_pressure;Samples;Min_cycle;Max_cycle;Signal;HPM_P1;HPM_P2
2022/04/25 00:02:05;;;;;;;;;;;;;;;;;;5072669;28;20368;-77
2022/04/25 00:04:31;;;;;;;;;;;;;;;;;;5073848;28;20404;-79
2022/04/25 00:06:56;;;;;;;;;;;;;;;;;;5073598;28;19967;-79
2022/04/25 00:09:22;;;;;;;;;;;;;;;;;;5072643;28;20000;-78
2022/04/25 00:11:47;;;;;;;;;;;;;;;;;;5072258;28;19920;-79
2022/04/25 00:14:14;;;;;;;;;;;;;;;;;;5073881;28;19927;-78
2022/04/25 00:16:40;;;;;;;;;;;;;;;;;;5072334;28;19912;-78
2022/04/25 00:19:05;;;;;;;;;;;;;;;;;;5072137;28;20324;-78
2022/04/25 00:21:31;;;;;;;;;;;;;;;;;;5073518;28;19966;-79
2022/04/25 00:23:57;;;;;;;;;;;;;;;;;;5073440;28;19966;-78
2022/04/25 00:26:22;;;;;;;;;;;;;;;;;;5073565;28;20015;-84
2022/04/25 00:28:48;;;;;;;;;;;;;;;;;;5073532;28;19959;-78
2022/04/25 00:31:13;;;;;;;;;;;;;;;;;;5073238;28;20408;-79
2022/04/25 00:33:39;;;;;;;;;;;;;;;;;;5071980;28;20284;-76
2022/04/25 00:36:04;;;;;;;;;;;;;;;;;;5073330;28;20015;-76
2022/04/25 00:38:30;;;;;;;;;;;;;;;;;;5073200;28;20285;-77
2022/04/25 00:40:55;;;;;;;;;;;;;;;;;;5073177;28;20368;-78
2022/04/25 00:43:21;;;;;;;;;;;;;;;;;;5073239;28;20369;-77
2022/04/25 00:45:46;;;;;;;;;;;;;;;;;;5071861;28;20394;-77
2022/04/25 00:48:12;;;;;;;;;;;;;;;;;;5055274;28;20441;-77
2022/04/25 00:50:38;;;;;;;;;;;;;;;;;;5071826;28;20731;-77
2022/04/25 00:53:04;;;;;;;;;;;;;;;;;;5073018;28;19916;-77
2022/04/25 00:55:30;;;;;;;;;;;;;;;;;;5072999;28;20288;-77
2022/04/25 00:57:56;;;;;;;;;;;;;;;;;;5073157;28;20637;-77
2022/04/25 01:00:22;;;;;;;;;;;;;;;;;;5071770;28;20281;-77
2022/04/25 01:02:48;;;;;;;;;;;;;;;;;;5072941;28;19962;-78
2022/04/25 01:05:13;;;;;;;;;;;;;;;;;;5072815;28;20347;-77
2022/04/25 01:07:39;;;;;;;;;;;;;;;;;;5072838;28;19924;-77
2022/04/25 01:10:05;;;;;;;;;;;;;;;;;;5073073;28;19921;-77
2022/04/25 01:12:30;;;;;;;;;;;;;;;;;;5072712;28;19993;-79
2022/04/25 01:15:04;;;;;;;;;;;;;;;;;;5071548;28;20368;-77
2022/04/25 01:17:29;;;;;;;;;;;;;;;;;;5072656;28;20395;-78
2022/04/25 01:19:54;;;;;;;;;;;;;;;;;;5071535;28;19912;-77
2022/04/25 01:22:24;;;;;;;;;;;;;;;;;;5054808;28;19916;-77
2022/04/25 01:27:34;;;;;;;;;;;;;;;;;;5076933;28;19971;-77
2022/04/25 01:30:00;;;;;;;;;;;;;;;;;;5076861;28;19959;-79
2022/04/25 01:32:25;;;;;;;;;;;;;;;;;;5076843;28;19924;-77
2022/04/25 01:34:52;;;;;;;;;;;;;;;;;;5076729;28;20336;-76
2022/04/25 01:37:19;;;;;;;;;;;;;;;;;;5075356;28;19958;-77
2022/04/25 01:39:48;;;;;;;;;;;;;;;;;;5076727;28;19990;-77
2022/04/25 01:42:13;;;;;;;;;;;;;;;;;;5075312;28;19920;-77
2022/04/25 01:44:39;;;;;;;;;;;;;;;;;;5076557;28;19921;-79
2022/04/25 01:47:06;;;;;;;;;;;;;;;;;;5076562;28;19969;-77
2022/04/25 01:49:34;;;;;;;;;;;;;;;;;;5076446;28;19916;-78
2022/04/25 01:52:01;;;;;;;;;;;;;;;;;;5075186;28;19924;-79
2022/04/25 01:54:27;;;;;;;;;;;;;;;;;;5076374;28;20405;-77
2022/04/25 01:56:53;;;;;;;;;;;;;;;;;;5076378;28;20003;-77
2022/04/25 01:59:19;;;;;;;;;;;;;;;;;;5076214;28;20007;-77
2022/04/25 02:01:44;;;;;;;;;;;;;;;;;;5076214;28;20007;-77
2022/04/25 02:04:10;;;;;;;;;;;;;;;;;;5076229;28;20519;-77
2022/04/25 02:06:35;;;;;;;;;;;;;;;;;;5074657;28;19969;-77
2022/04/25 02:09:00;;;;;;;;;;;;;;;;;;5076061;28;19920;-81
2022/04/25 02:11:26;;;;;;;;;;;;;;;;;;5058133;28;19967;-77
2022/04/25 02:13:52;;;;;;;;;;;;;;;;;;5074811;28;20022;-77
2022/04/25 02:16:18;;;;;;;;;;;;;;;;;;5074713;28;20339;-77
2022/04/25 02:18:43;;;;;;;;;;;;;;;;;;5075877;28;19924;-77
2022/04/25 02:21:09;;;;;;;;;;;;;;;;;;5074566;28;19916;-77
2022/04/25 02:23:34;;;;;;;;;;;;;;;;;;5075768;28;20285;-77
2022/04/25 02:26:00;;;;;;;;;;;;;;;;;;5075704;28;19940;-77
2022/04/25 02:28:27;;;;;;;;;;;;;;;;;;5075824;28;19916;-77
2022/04/25 02:30:53;;;;;;;;;;;;;;;;;;5075744;28;20415;-77
2022/04/25 02:33:18;;;;;;;;;;;;;;;;;;5075622;28;19962;-76
2022/04/25 02:35:44;;;;;;;;;;;;;;;;;;5074621;28;19939;-77
2022/04/25 02:38:10;;;;;;;;;;;;;;;;;;5074327;28;19921;-77
2022/04/25 02:40:35;;;;;;;;;;;;;;;;;;5075604;28;20066;-77
2022/04/25 02:43:01;;;;;;;;;;;;;;;;;;5074118;28;20416;-77
2022/04/25 02:45:27;;;;;;;;;;;;;;;;;;5075347;28;20019;-78
2022/04/25 02:47:53;;;;;;;;;;;;;;;;;;5057518;28;20007;-77
2022/04/25 02:50:19;;;;;;;;;;;;;;;;;;5074031;28;19913;-77
2022/04/25 02:52:44;;;;;;;;;;;;;;;;;;5075316;28;19920;-77
2022/04/25 02:55:09;;;;;;;;;;;;;;;;;;5073863;28;19912;-76
2022/04/25 02:57:35;;;;;;;;;;;;;;;;;;5075158;28;19916;-77
2022/04/25 03:00:00;;;;;;;;;;;;;;;;;;5057276;28;19922;-77
2022/04/25 03:02:26;;;;;;;;;;;;;;;;;;5073960;28;19912;-77
2022/04/25 03:04:51;;;;;;;;;;;;;;;;;;5075126;28;20023;-78
2022/04/25 03:07:17;;;;;;;;;;;;;;;;;;5074813;28;19924;-77
2022/04/25 03:09:42;;;;;;;;;;;;;;;;;;5073701;28;19970;-77
2022/04/25 03:12:09;;;;;;;;;;;;;;;;;;5073673;28;19923;-76
2022/04/25 03:14:34;;;;;;;;;;;;;;;;;;5074901;28;20331;-78
2022/04/25 03:17:00;;;;;;;;;;;;;;;;;;5074722;28;19920;-76
2022/04/25 03:19:26;;;;;;;;;;;;;;;;;;5074423;28;19921;-77
2022/04/25 03:21:51;;;;;;;;;;;;;;;;;;5074066;28;19920;-76
2022/04/25 03:24:17;;;;;;;;;;;;;;;;;;5074632;28;19916;-77
2022/04/25 03:26:42;;;;;;;;;;;;;;;;;;5073567;28;19967;-80
2022/04/25 03:29:08;;;;;;;;;;;;;;;;;;5074519;28;19916;-77
2022/04/25 03:31:33;;;;;;;;;;;;;;;;;;5072531;28;20342;-77
2022/04/25 03:33:59;;;;;;;;;;;;;;;;;;5073276;28;19917;-77
2022/04/25 03:36:24;;;;;;;;;;;;;;;;;;5073165;28;19917;-77
2022/04/25 03:38:52;;;;;;;;;;;;;;;;;;5074469;28;19923;-78
2022/04/25 03:41:18;;;;;;;;;;;;;;;;;;5074267;28;19920;-77
2022/04/25 03:43:44;;;;;;;;;;;;;;;;;;5072955;28;20380;-77
2022/04/25 03:46:09;;;;;;;;;;;;;;;;;;5074299;28;19978;-76
2022/04/25 03:48:34;;;;;;;;;;;;;;;;;;5073849;28;19962;-77
2022/04/25 03:51:00;;;;;;;;;;;;;;;;;;5070417;28;19924;-79
2022/04/25 03:53:25;;;;;;;;;;;;;;;;;;5074063;28;19939;-77
2022/04/25 03:58:35;;;;;;;;;;;;;;;;;;5074175;28;19924;-78
2022/04/25 04:01:02;;;;;;;;;;;;;;;;;;5073933;28;20288;-78
2022/04/25 04:03:28;;;;;;;;;;;;;;;;;;5074011;28;20007;-78
2022/04/25 04:05:54;;;;;;;;;;;;;;;;;;5073407;28;20035;-78
2022/04/25 04:08:20;;;;;;;;;;;;;;;;;;5073701;28;19977;-76
2022/04/25 04:10:45;;;;;;;;;;;;;;;;;;5072429;28;20444;-78
2022/04/25 04:13:11;;;;;;;;;;;;;;;;;;5073671;28;19917;-77
2022/04/25 04:15:36;;;;;;;;;;;;;;;;;;5073647;28;19964;-77
2022/04/25 04:18:04;;;;;;;;;;;;;;;;;;5073606;28;19928;-79
2022/04/25 04:20:30;;;;;;;;;;;;;;;;;;5053732;28;19967;-77
2022/04/25 04:22:55;;;;;;;;;;;;;;;;;;5053646;28;19967;-77
2022/04/25 04:25:22;;;;;;;;;;;;;;;;;;5053530;28;20012;-76
2022/04/25 04:27:48;;;;;;;;;;;;;;;;;;5053576;28;20008;-76
2022/04/25 04:30:14;;;;;;;;;;;;;;;;;;5053553;28;19917;-76
2022/04/25 04:32:40;;;;;;;;;;;;;;;;;;5053453;28;19924;-77
2022/04/25 04:35:09;;;;;;;;;;;;;;;;;;5072283;28;20570;-76
2022/04/25 04:37:35;;;;;;;;;;;;;;;;;;5073269;28;19923;-76
2022/04/25 04:42:45;;;;;;;;;;;;;;;;;;5073292;28;19961;-76
2022/04/25 04:45:11;;;;;;;;;;;;;;;;;;5073029;28;20011;-77
2022/04/25 04:47:38;;;;;;;;;;;;;;;;;;5073159;28;20017;-77
2022/04/25 04:50:04;;;;;;;;;;;;;;;;;;5071778;28;20011;-76
2022/04/25 04:52:29;;;;;;;;;;;;;;;;;;5064235;28;20288;-77
2022/04/25 04:54:55;;;;;;;;;;;;;;;;;;5056227;28;19917;-78
2022/04/25 04:57:20;;;;;;;;;;;;;;;;;;5071636;28;20011;-76
2022/04/25 04:59:46;;;;;;;;;;;;;;;;;;5068185;28;20007;-75
2022/04/25 05:02:11;;;;;;;;;;;;;;;;;;5065679;28;20222;-80
2022/04/25 05:04:38;;;;;;;;;;;;;;;;;;5065744;28;19959;-85
2022/04/25 05:07:04;;;;;;;;;;;;;;;;;;5063604;28;20372;-77
2022/04/25 05:09:31;;;;;;;;;;;;;;;;;;5067227;28;19927;-75
2022/04/25 05:11:57;;;;;;;;;;;;;;;;;;5072377;28;20422;-78
2022/04/25 05:14:22;;;;;;;;;;;;;;;;;;5071675;28;19920;-76
2022/04/25 05:16:48;;;;;;;;;;;;;;;;;;5066433;28;20020;-76
2022/04/25 05:19:13;;;;;;;;;;;;;;;;;;5072051;28;20276;-77
2022/04/25 05:21:39;;;;;;;;;;;;;;;;;;5070507;28;20363;-79
2022/04/25 05:24:05;;;;;;;;;;;;;;;;;;5063052;28;19977;-83
2022/04/25 05:26:31;;;;;;;;;;;;;;;;;;5058004;28;21627;-82
2022/04/25 05:28:57;;;;;;;;;;;;;;;;;;5059876;28;19927;-81
2022/04/25 05:31:23;;;;;;;;;;;;;;;;;;5070270;28;19920;-77
2022/04/25 05:33:48;;;;;;;;;;;;;;;;;;5071058;28;20395;-83
2022/04/25 05:36:14;;;;;;;;;;;;;;;;;;5067341;28;20364;-79
2022/04/25 05:38:39;;;;;;;;;;;;;;;;;;5081308;28;19927;-84
2022/04/25 05:41:05;;;;;;;;;;;;;;;;;;5065353;28;20007;-80
2022/04/25 05:43:30;;;;;;;;;;;;;;;;;;5065987;28;20016;-85
2022/04/25 05:45:55;;;;;;;;;;;;;;;;;;5066155;28;19956;-82
2022/04/25 05:53:49;;;;;;;;;;;;;;;;;;5052408;28;19939;-85
2022/04/25 05:56:14;;;;;;;;;;;;;;;;;;5052942;28;19917;-78
2022/04/25 05:58:40;;;;;;;;;;;;;;;;;;5052819;28;20276;-80
2022/04/25 06:01:05;;;;;;;;;;;;;;;;;;5050944;28;19924;-86
2022/04/25 06:03:31;;;;;;;;;;;;;;;;;;5052374;28;20391;-82
2022/04/25 06:05:56;;;;;;;;;;;;;;;;;;5062412;28;19921;-80
2022/04/25 06:08:21;;;;;;;;;;;;;;;;;;5069815;28;19931;-80
2022/04/25 06:10:47;;;;;;;;;;;;;;;;;;5066989;28;19926;-77
2022/04/25 06:13:13;;;;;;;;;;;;;;;;;;5069707;28;20015;-79
2022/04/25 06:15:39;;;;;;;;;;;;;;;;;;5071703;28;20331;-80
2022/04/25 06:18:05;;;;;;;;;;;;;;;;;;5070736;28;19924;-77
2022/04/25 06:20:30;;;;;;;;;;;;;;;;;;5071766;28;19977;-78
2022/04/25 06:22:59;;;;;;;;;;;;;;;;;;5070135;28;20367;-79
2022/04/25 06:25:26;;;;;;;;;;;;;;;;;;5071955;28;19962;-79
2022/04/25 06:27:51;;;;;;;;;;;;;;;;;;5075533;28;19924;-79
2022/04/25 06:30:17;;;;;;;;;;;;;;;;;;5073105;28;19916;-78
2022/04/25 06:32:42;;;;;;;;;;;;;;;;;;5072965;28;19924;-78
2022/04/25 06:35:08;;;;;;;;;;;;;;;;;;5069725;28;19943;-82
2022/04/25 06:37:34;;;;;;;;;;;;;;;;;;5071357;28;20014;-79
2022/04/25 06:39:59;;;;;;;;;;;;;;;;;;5069097;28;19924;-78
2022/04/25 06:42:25;;;;;;;;;;;;;;;;;;5068991;28;20011;-77
2022/04/25 06:44:51;;;;;;;;;;;;;;;;;;5070419;28;20364;-76
2022/04/25 06:47:16;;;;;;;;;;;;;;;;;;5069658;28;19968;-78
2022/04/25 06:49:41;;;;;;;;;;;;;;;;;;5069212;28;19921;-80
2022/04/25 06:52:09;;;;;;;;;;;;;;;;;;5072208;28;19917;-80
2022/04/25 06:54:35;;;;;;;;;;;;;;;;;;5071512;28;19928;-79
2022/04/25 06:57:01;;;;;;;;;;;;;;;;;;5067924;28;19920;-80
2022/04/25 06:59:26;;;;;;;;;;;;;;;;;;5070144;28;19966;-80
2022/04/25 07:01:52;;;;;;;;;;;;;;;;;;5067800;28;20034;-78
2022/04/25 07:04:18;;;;;;;;;;;;;;;;;;5068752;28;19924;-80
2022/04/25 07:06:44;;;;;;;;;;;;;;;;;;5069217;28;19920;-80
2022/04/25 07:09:13;;;;;;;;;;;;;;;;;;5067850;28;20407;-78
2022/04/25 07:11:41;;;;;;;;;;;;;;;;;;5068489;28;19912;-77
2022/04/25 07:14:06;;;;;;;;;;;;;;;;;;5066605;28;20057;-77
2022/04/25 07:16:32;;;;;;;;;;;;;;;;;;5066745;28;20042;-84
2022/04/25 07:18:57;;;;;;;;;;;;;;;;;;5070245;28;20380;-79
2022/04/25 07:29:35;;;;;;;;;;;;;;;;;;5068246;28;20008;-83
2022/04/25 07:32:00;;;;;;;;;;;;;;;;;;5071167;28;20949;-77
2022/04/25 07:34:26;;;;;;;;;;;;;;;;;;5070044;28;20412;-80
2022/04/25 07:36:53;;;;;;;;;;;;;;;;;;5073589;28;19956;-81
2022/04/25 07:39:21;;;;;;;;;;;;;;;;;;5070778;28;20027;-77
2022/04/25 07:41:47;;;;;;;;;;;;;;;;;;5071085;28;19921;-78
2022/04/25 07:44:13;;;;;;;;;;;;;;;;;;5070105;28;20441;-80
2022/04/25 07:46:41;;;;;;;;;;;;;;;;;;5065819;28;19925;-80
2022/04/25 07:49:07;;;;;;;;;;;;;;;;;;5068900;28;20481;-76
2022/04/25 07:51:33;;;;;;;;;;;;;;;;;;5069822;28;19964;-76
2022/04/25 07:53:58;;;;;;;;;;;;;;;;;;5069823;28;21628;-77
2022/04/25 07:56:26;;;;;;;;;;;;;;;;;;5070480;28;20011;-78
2022/04/25 07:58:51;;;;;;;;;;;;;;;;;;5067628;28;19962;-77
2022/04/25 08:01:17;;;;;;;;;;;;;;;;;;5066326;28;19956;-76
2022/04/25 08:03:42;;;;;;;;;;;;;;;;;;5065854;28;19928;-79
2022/04/25 08:06:08;;;;;;;;;;;;;;;;;;5062193;28;19960;-76
2022/04/25 08:08:33;;;;;;;;;;;;;;;;;;5062370;28;19974;-75
2022/04/25 08:10:59;;;;;;;;;;;;;;;;;;5064489;28;19970;-80
2022/04/25 08:18:52;;;;;;;;;;;;;;;;;;5064414;28;19927;-79
2022/04/25 08:21:18;;;;;;;;;;;;;;;;;;5064293;28;19924;-80
2022/04/25 08:23:45;;;;;;;;;;;;;;;;;;5061945;28;19920;-80
2022/04/25 08:26:11;;;;;;;;;;;;;;;;;;5061579;28;19971;-76
2022/04/25 08:28:37;;;;;;;;;;;;;;;;;;5061955;28;20061;-77
2022/04/25 08:31:04;;;;;;;;;;;;;;;;;;5062268;28;20015;-78
2022/04/25 08:33:30;;;;;;;;;;;;;;;;;;5064000;28;19924;-77
2022/04/25 08:35:56;;;;;;;;;;;;;;;;;;5063313;28;20003;-80
2022/04/25 08:38:22;;;;;;;;;;;;;;;;;;5066278;28;20026;-81
2022/04/25 08:40:48;;;;;;;;;;;;;;;;;;5067767;28;19963;-77
2022/04/25 08:43:14;;;;;;;;;;;;;;;;;;5070750;28;19921;-80
2022/04/25 08:45:40;;;;;;;;;;;;;;;;;;5069939;28;19917;-84
2022/04/25 08:48:06;;;;;;;;;;;;;;;;;;5066768;28;19927;-78
2022/04/25 08:50:32;;;;;;;;;;;;;;;;;;5068872;28;19923;-80
2022/04/25 08:52:59;;;;;;;;;;;;;;;;;;5066371;28;19927;-79
2022/04/25 08:55:26;;;;;;;;;;;;;;;;;;5064724;28;20054;-83
2022/04/25 08:57:53;;;;;;;;;;;;;;;;;;5067731;28;20400;-79
2022/04/25 09:00:19;;;;;;;;;;;;;;;;;;5068705;28;19927;-80
2022/04/25 09:02:50;;;;;;;;;;;;;;;;;;5070478;28;19925;-79
2022/04/25 09:05:15;;;;;;;;;;;;;;;;;;5068494;28;19917;-78
2022/04/25 09:07:43;;;;;;;;;;;;;;;;;;5067863;28;20007;-83
2022/04/25 09:10:10;;;;;;;;;;;;;;;;;;5068700;28;19920;-77
2022/04/25 09:12:36;;;;;;;;;;;;;;;;;;5067344;28;20376;-79
2022/04/25 09:15:03;;;;;;;;;;;;;;;;;;5068638;28;19916;-83
2022/04/25 09:17:28;;;;;;;;;;;;;;;;;;5065588;28;19916;-79
2022/04/25 09:19:54;;;;;;;;;;;;;;;;;;5071843;28;20008;-80
2022/04/25 09:22:32;;;;;;;;;;;;;;;;;;5066525;28;19931;-83
2022/04/25 09:25:08;;;;;;;;;;;;;;;;;;5067134;28;19916;-82
2022/04/25 09:27:34;;;;;;;;;;;;;;;;;;5069531;28;19917;-81
2022/04/25 09:30:19;;;;;;;;;;;;;;;;;;5068199;28;20343;-85
2022/04/25 09:32:46;;;;;;;;;;;;;;;;;;5066275;28;19924;-83
2022/04/25 09:35:24;;;;;;;;;;;;;;;;;;5068407;28;19920;-82
2022/04/25 09:37:49;;;;;;;;;;;;;;;;;;5062821;28;19928;-81
2022/04/25 09:40:19;;;;;;;;;;;;;;;;;;5060945;28;19913;-82
2022/04/25 09:42:46;;;;;;;;;;;;;;;;;;5062604;28;19917;-81
2022/04/25 09:45:12;;;;;;;;;;;;;;;;;;5066340;28;19916;-82
2022/04/25 09:47:37;;;;;;;;;;;;;;;;;;5070862;28;19927;-80
2022/04/25 09:50:07;;;;;;;;;;;;;;;;;;5068965;28;20346;-83
2022/04/25 09:52:35;;;;;;;;;;;;;;;;;;5075751;28;20050;-82
2022/04/25 09:55:10;;;;;;;;;;;;;;;;;;5076445;28;20014;-80
2022/04/25 09:57:36;;;;;;;;;;;;;;;;;;5076453;28;20280;-79
2022/04/25 10:00:02;;;;;;;;;;;;;;;;;;5067809;28;19916;-82
2022/04/25 10:02:28;;;;;;;;;;;;;;;;;;5070526;28;20005;-80
2022/04/25 10:04:53;;;;;;;;;;;;;;;;;;5069144;28;20296;-81
2022/04/25 10:07:20;;;;;;;;;;;;;;;;;;5068737;28;19924;-81
2022/04/25 10:09:46;;;;;;;;;;;;;;;;;;5068988;28;19920;-82
2022/04/25 10:12:12;;;;;;;;;;;;;;;;;;5070428;28;19916;-79
2022/04/25 10:14:38;;;;;;;;;;;;;;;;;;5070909;28;19924;-81
2022/04/25 10:17:03;;;;;;;;;;;;;;;;;;5073344;28;19931;-82
2022/04/25 10:19:32;;;;;;;;;;;;;;;;;;5070567;28;19935;-82
2022/04/25 10:21:57;;;;;;;;;;;;;;;;;;5070256;28;19941;-87
2022/04/25 10:24:23;;;;;;;;;;;;;;;;;;5068451;28;20285;-84
2022/04/25 10:26:49;;;;;;;;;;;;;;;;;;5065098;28;20300;-84
2022/04/25 10:29:18;;;;;;;;;;;;;;;;;;5072434;28;19924;-80
2022/04/25 10:31:45;;;;;;;;;;;;;;;;;;5069692;28;19963;-81
2022/04/25 10:34:14;;;;;;;;;;;;;;;;;;5065730;28;20352;-83
2022/04/25 10:36:39;;;;;;;;;;;;;;;;;;5067772;28;19968;-80
2022/04/25 10:39:13;;;;;;;;;;;;;;;;;;5067526;28;20704;-85
2022/04/25 10:44:26;;;;;;;;;;;;;;;;;;5073634;28;19965;-79
2022/04/25 10:47:08;;;;;;;;;;;;;;;;;;5075510;28;20007;-77
2022/04/25 10:49:34;;;;;;;;;;;;;;;;;;5061165;28;19928;-76
2022/04/25 10:52:00;;;;;;;;;;;;;;;;;;5055326;28;19916;-78
2022/04/25 10:54:28;;;;;;;;;;;;;;;;;;5064245;28;19961;-79
2022/04/25 10:57:09;;;;;;;;;;;;;;;;;;5070973;28;19928;-79
2022/04/25 10:59:35;;;;;;;;;;;;;;;;;;5061015;28;19917;-77
2022/04/25 11:02:01;;;;;;;;;;;;;;;;;;5074569;28;19924;-79
2022/04/25 11:04:26;;;;;;;;;;;;;;;;;;5074953;28;20369;-78
2022/04/25 11:07:27;;;;;;;;;;;;;;;;;;5074938;28;20300;-80
2022/04/25 11:09:52;;;;;;;;;;;;;;;;;;5013230;28;19922;-78
2022/04/25 11:12:19;;;;;;;;;;;;;;;;;;5012964;28;19932;-79
2022/04/25 11:15:02;;;;;;;;;;;;;;;;;;5012908;28;19924;-79
2022/04/25 11:17:28;;;;;;;;;;;;;;;;;;5012561;28;19924;-75
2022/04/25 11:19:55;;;;;;;;;;;;;;;;;;5012296;28;19925;-77
2022/04/25 11:22:31;;;;;;;;;;;;;;;;;;5012758;28;20393;-76
2022/04/25 11:24:57;;;;;;;;;;;;;;;;;;5012601;28;19975;-77
2022/04/25 11:27:23;;;;;;;;;;;;;;;;;;5012494;28;19921;-79
2022/04/25 11:30:06;;;;;;;;;;;;;;;;;;5011921;28;19920;-81
2022/04/25 11:32:40;;;;;;;;;;;;;;;;;;5012504;28;19917;-77
2022/04/25 11:35:06;;;;;;;;;;;;;;;;;;5011921;28;19945;-77
2022/04/25 11:37:33;;;;;;;;;;;;;;;;;;5012297;28;20021;-78
2022/04/25 11:40:00;;;;;;;;;;;;;;;;;;5012397;28;20008;-78
2022/04/25 11:42:26;;;;;;;;;;;;;;;;;;5009932;28;20013;-78
2022/04/25 11:44:52;;;;;;;;;;;;;;;;;;5064449;28;19924;-79
2022/04/25 11:47:21;;;;;;;;;;;;;;;;;;5074107;28;19967;-78
2022/04/25 11:49:46;;;;;;;;;;;;;;;;;;5074071;28;19920;-79
2022/04/25 11:52:15;;;;;;;;;;;;;;;;;;5073922;28;19973;-78
2022/04/25 11:54:42;;;;;;;;;;;;;;;;;;5074216;28;19928;-80
2022/04/25 11:57:07;;;;;;;;;;;;;;;;;;5074074;28;20423;-80
2022/04/25 11:59:32;;;;;;;;;;;;;;;;;;5073738;28;19920;-81
2022/04/25 12:01:58;;;;;;;;;;;;;;;;;;5070493;28;20007;-80
2022/04/25 12:04:30;;;;;;;;;;;;;;;;;;5073791;28;19925;-79
2022/04/25 12:07:00;;;;;;;;;;;;;;;;;;5073493;28;19920;-80
2022/04/25 12:17:42;;;;;;;;;;;;;;;;;;5073857;28;20354;-83
2022/04/25 12:20:09;;;;;;;;;;;;;;;;;;5058181;28;19920;-80
2022/04/25 12:22:35;;;;;;;;;;;;;;;;;;5053534;28;19923;-81
2022/04/25 12:25:17;;;;;;;;;;;;;;;;;;5058933;28;19920;-81
2022/04/25 12:28:01;;;;;;;;;;;;;;;;;;5073366;28;20622;-79
2022/04/25 12:30:28;;;;;;;;;;;;;;;;;;5073264;28;19916;-81
2022/04/25 12:33:07;;;;;;;;;;;;;;;;;;5071120;28;19920;-78
2022/04/25 12:35:33;;;;;;;;;;;;;;;;;;5073191;28;19920;-78
2022/04/25 12:37:59;;;;;;;;;;;;;;;;;;5057632;28;19928;-80
2022/04/25 12:40:24;;;;;;;;;;;;;;;;;;5053236;28;19924;-80
2022/04/25 12:42:54;;;;;;;;;;;;;;;;;;5068311;28;20058;-81
2022/04/25 12:45:20;;;;;;;;;;;;;;;;;;5066211;28;20324;-81
2022/04/25 12:47:45;;;;;;;;;;;;;;;;;;5065831;28;19923;-82
2022/04/25 12:50:12;;;;;;;;;;;;;;;;;;5061589;28;19916;-81
2022/04/25 12:52:50;;;;;;;;;;;;;;;;;;5062749;28;20399;-79
2022/04/25 12:55:16;;;;;;;;;;;;;;;;;;5062567;28;20368;-79
2022/04/25 12:57:51;;;;;;;;;;;;;;;;;;5060550;28;19927;-79
2022/04/25 13:00:17;;;;;;;;;;;;;;;;;;5071304;28;20428;-81
2022/04/25 13:02:42;;;;;;;;;;;;;;;;;;5072884;28;19920;-79
2022/04/25 13:05:08;;;;;;;;;;;;;;;;;;5072814;28;19939;-80
2022/04/25 13:07:38;;;;;;;;;;;;;;;;;;5072536;28;19924;-80
2022/04/25 13:10:05;;;;;;;;;;;;;;;;;;5072984;28;19952;-79
2022/04/25 13:12:37;;;;;;;;;;;;;;;;;;5072877;28;20417;-77
2022/04/25 13:15:04;;;;;;;;;;;;;;;;;;5072849;28;19920;-77
2022/04/25 13:17:30;;;;;;;;;;;;;;;;;;5072346;28;19912;-77
2022/04/25 13:19:55;;;;;;;;;;;;;;;;;;5072015;28;19923;-78
2022/04/25 13:22:21;;;;;;;;;;;;;;;;;;5070563;28;19919;-79
2022/04/25 13:24:48;;;;;;;;;;;;;;;;;;5071073;28;20007;-78
2022/04/25 13:27:14;;;;;;;;;;;;;;;;;;5071415;28;20380;-78
2022/04/25 13:29:41;;;;;;;;;;;;;;;;;;5072469;28;19969;-79
2022/04/25 13:32:06;;;;;;;;;;;;;;;;;;5072624;28;19916;-77
2022/04/25 13:34:32;;;;;;;;;;;;;;;;;;5072629;28;20365;-76
2022/04/25 13:36:58;;;;;;;;;;;;;;;;;;5072434;28;20403;-77
2022/04/25 13:39:24;;;;;;;;;;;;;;;;;;5072557;28;19966;-77
2022/04/25 13:41:49;;;;;;;;;;;;;;;;;;5072415;28;19954;-77
2022/04/25 13:44:15;;;;;;;;;;;;;;;;;;5072582;28;20301;-78
2022/04/25 13:46:40;;;;;;;;;;;;;;;;;;5071171;28;19923;-77
2022/04/25 13:49:06;;;;;;;;;;;;;;;;;;5072380;28;20011;-78
2022/04/25 13:51:32;;;;;;;;;;;;;;;;;;5070814;28;19923;-79
2022/04/25 13:53:57;;;;;;;;;;;;;;;;;;5072466;28;20015;-77
2022/04/25 13:56:23;;;;;;;;;;;;;;;;;;5072341;28;19916;-78
2022/04/25 13:58:49;;;;;;;;;;;;;;;;;;5072372;28;19916;-78
2022/04/25 14:01:15;;;;;;;;;;;;;;;;;;5072277;28;19920;-77
2022/04/25 14:03:41;;;;;;;;;;;;;;;;;;5072367;28;19927;-79
2022/04/25 14:06:06;;;;;;;;;;;;;;;;;;5070914;28;19921;-75
2022/04/25 14:08:32;;;;;;;;;;;;;;;;;;5072172;28;20311;-77
2022/04/25 14:10:58;;;;;;;;;;;;;;;;;;5063508;28;19939;-76
2022/04/25 14:13:28;;;;;;;;;;;;;;;;;;5069889;28;20364;-79
2022/04/25 14:15:54;;;;;;;;;;;;;;;;;;5072525;28;20008;-79
2022/04/25 14:18:21;;;;;;;;;;;;;;;;;;5072122;28;19944;-77
2022/04/25 14:20:47;;;;;;;;;;;;;;;;;;5060568;28;19918;-78
2022/04/25 14:23:12;;;;;;;;;;;;;;;;;;5050808;28;20399;-78
2022/04/25 14:25:38;;;;;;;;;;;;;;;;;;5050819;28;19925;-79
2022/04/25 14:28:04;;;;;;;;;;;;;;;;;;5052321;28;20403;-79
2022/04/25 14:30:30;;;;;;;;;;;;;;;;;;5052116;28;19940;-78
2022/04/25 14:32:56;;;;;;;;;;;;;;;;;;5055688;28;19917;-78
2022/04/25 14:35:25;;;;;;;;;;;;;;;;;;5055686;28;19925;-78
2022/04/25 14:37:51;;;;;;;;;;;;;;;;;;5055642;28;19924;-78
2022/04/25 14:40:17;;;;;;;;;;;;;;;;;;5055634;28;19924;-77
2022/04/25 14:42:43;;;;;;;;;;;;;;;;;;5055502;28;19931;-78
2022/04/25 14:45:09;;;;;;;;;;;;;;;;;;5055424;28;20289;-77
2022/04/25 14:47:35;;;;;;;;;;;;;;;;;;5055290;28;20385;-77
2022/04/25 14:55:28;;;;;;;;;;;;;;;;;;5055248;28;19962;-77
2022/04/25 14:57:54;;;;;;;;;;;;;;;;;;5055088;28;19920;-77
2022/04/25 15:00:22;;;;;;;;;;;;;;;;;;5055205;28;20391;-77
2022/04/25 15:02:48;;;;;;;;;;;;;;;;;;5055274;28;20035;-76
2022/04/25 15:05:14;;;;;;;;;;;;;;;;;;5055063;28;20396;-76
2022/04/25 15:07:40;;;;;;;;;;;;;;;;;;5053387;28;19924;-78
2022/04/25 15:10:05;;;;;;;;;;;;;;;;;;5054975;28;20426;-77
2022/04/25 15:12:31;;;;;;;;;;;;;;;;;;5054779;28;19959;-77
2022/04/25 15:14:56;;;;;;;;;;;;;;;;;;5054910;28;19921;-75
2022/04/25 15:17:22;;;;;;;;;;;;;;;;;;5057189;28;19920;-77
2022/04/25 15:19:47;;;;;;;;;;;;;;;;;;5074792;28;19923;-78
2022/04/25 15:22:12;;;;;;;;;;;;;;;;;;5074820;28;19924;-77
2022/04/25 15:24:38;;;;;;;;;;;;;;;;;;5074679;28;19994;-77
2022/04/25 15:27:03;;;;;;;;;;;;;;;;;;5074603;28;19962;-79
2022/04/25 15:29:29;;;;;;;;;;;;;;;;;;5074605;28;19919;-77
2022/04/25 15:31:54;;;;;;;;;;;;;;;;;;5074526;28;19917;-77
2022/04/25 15:34:20;;;;;;;;;;;;;;;;;;5074462;28;20554;-78
2022/04/25 15:36:45;;;;;;;;;;;;;;;;;;5074353;28;19932;-76
2022/04/25 15:39:10;;;;;;;;;;;;;;;;;;5074282;28;19920;-75
2022/04/25 15:41:36;;;;;;;;;;;;;;;;;;5074286;28;19920;-77
2022/04/25 15:44:01;;;;;;;;;;;;;;;;;;5054815;28;19917;-74
2022/04/25 15:46:27;;;;;;;;;;;;;;;;;;5060990;28;19917;-76
2022/04/25 15:48:52;;;;;;;;;;;;;;;;;;5072843;28;20400;-76
2022/04/25 15:51:18;;;;;;;;;;;;;;;;;;5061822;28;20361;-78
2022/04/25 15:59:12;;;;;;;;;;;;;;;;;;5053946;28;19924;-76
2022/04/25 16:01:38;;;;;;;;;;;;;;;;;;5054094;28;19928;-78
2022/04/25 16:04:04;;;;;;;;;;;;;;;;;;5054086;28;19917;-86
2022/04/25 16:06:29;;;;;;;;;;;;;;;;;;5053653;28;20015;-75
2022/04/25 16:08:56;;;;;;;;;;;;;;;;;;5051897;28;20224;-76
2022/04/25 16:11:21;;;;;;;;;;;;;;;;;;5052572;28;19920;-75
2022/04/25 16:13:47;;;;;;;;;;;;;;;;;;5053803;28;19993;-77
2022/04/25 16:16:14;;;;;;;;;;;;;;;;;;5053789;28;20015;-76
2022/04/25 16:18:41;;;;;;;;;;;;;;;;;;5065368;28;19916;-77
2022/04/25 16:21:06;;;;;;;;;;;;;;;;;;5073770;28;19959;-78
2022/04/25 16:23:32;;;;;;;;;;;;;;;;;;5073661;28;19951;-78
2022/04/25 16:26:02;;;;;;;;;;;;;;;;;;5073495;28;20359;-77
2022/04/25 16:28:28;;;;;;;;;;;;;;;;;;5073468;28;19923;-76
2022/04/25 16:30:57;;;;;;;;;;;;;;;;;;5073450;28;19916;-77
2022/04/25 16:33:23;;;;;;;;;;;;;;;;;;5073069;28;20276;-79
2022/04/25 16:35:48;;;;;;;;;;;;;;;;;;5073378;28;19923;-80
2022/04/25 16:38:14;;;;;;;;;;;;;;;;;;5073237;28;19956;-81
2022/04/25 16:40:39;;;;;;;;;;;;;;;;;;5071946;28;19920;-78
2022/04/25 16:43:05;;;;;;;;;;;;;;;;;;5071894;28;19963;-77
2022/04/25 16:45:30;;;;;;;;;;;;;;;;;;5073178;28;19942;-79
2022/04/25 16:47:56;;;;;;;;;;;;;;;;;;5073423;28;19974;-75
2022/04/25 16:50:21;;;;;;;;;;;;;;;;;;5073268;28;20388;-75
2022/04/25 16:52:47;;;;;;;;;;;;;;;;;;5073178;28;20380;-80
2022/04/25 16:55:13;;;;;;;;;;;;;;;;;;5072526;28;19920;-82
2022/04/25 16:57:38;;;;;;;;;;;;;;;;;;5072934;28;20253;-88
2022/04/25 17:00:04;;;;;;;;;;;;;;;;;;5071742;28;19920;-80
2022/04/25 17:02:30;;;;;;;;;;;;;;;;;;5073015;28;19962;-83
2022/04/25 17:04:55;;;;;;;;;;;;;;;;;;5072901;28;19920;-82
2022/04/25 17:07:21;;;;;;;;;;;;;;;;;;5072669;28;19920;-82
2022/04/25 17:09:46;;;;;;;;;;;;;;;;;;5072937;28;19920;-83
2022/04/25 17:12:13;;;;;;;;;;;;;;;;;;5071727;28;20003;-84
2022/04/25 17:14:38;;;;;;;;;;;;;;;;;;5071625;28;19970;-82
2022/04/25 17:17:04;;;;;;;;;;;;;;;;;;5072464;28;19920;-83
2022/04/25 17:19:30;;;;;;;;;;;;;;;;;;5051615;28;20253;-84
2022/04/25 17:21:56;;;;;;;;;;;;;;;;;;5052739;28;19917;-78
2022/04/25 17:24:21;;;;;;;;;;;;;;;;;;5050676;28;19913;-82
2022/04/25 17:26:47;;;;;;;;;;;;;;;;;;5045435;28;19927;-85
2022/04/25 17:29:13;;;;;;;;;;;;;;;;;;5046845;28;19959;-81
